Nieuwpoort, Belgium
Current Conditions -  °F | °C
As of 9:25 PM on Wednesday 26 Nov 2014 (Local Time) from EBFN Reporting Station
Haze Haze  
Wind Chill: 46°   Ceiling: 400
Heat Index: 48°   Visibility: 1mi
Dew Point: 48°   Wind: 5mph
Humidity: 100%   Direction: 180°S
Pressure: 29.83"   Gusts: NA
Location:  51.13°N, 2.75°E
Report Text: EBFN 262025Z 18004KT 1600 BR SCT002 BKN004 09/09 Q1010 AMB
Loading
Personal Weather Stations






























Interactive Weather Map New forecast layout! Learn more

10-Day Weather Forecast

Advertisements
Track Severe Weather on mobile